Time;durP1;ratioP1;P1;durP2;ratioP2;P2;SDS_P1;SDS_P2;PMS_P1;PMS_P2;Temp;Humidity;BMP_temperature;BMP_pressure;BME280_temperature;BME280_humidity;BME280_pressure;Samples;Min_cycle;Max_cycle;Signal;HPM_P1;HPM_P2
2022/10/18 00:01:55;;;;;;;6.85;3.65;;;;;;;22.32;49.55;101431.09;5031489;28;20060;-54
2022/10/18 00:04:21;;;;;;;7.20;4.00;;;;;;;21.99;50.34;101431.53;5031715;28;20072;-55
2022/10/18 00:06:47;;;;;;;9.95;4.15;;;;;;;22.08;50.06;101432.63;5022301;28;20458;-55
2022/10/18 00:09:13;;;;;;;5.63;3.53;;;;;;;21.93;50.71;101429.84;5011887;28;20134;-54
2022/10/18 00:11:40;;;;;;;11.25;3.72;;;;;;;22.07;50.31;101431.00;5011621;28;20034;-54
2022/10/18 00:14:06;;;;;;;5.65;3.22;;;;;;;21.74;50.84;101424.88;5011591;28;20490;-55
2022/10/18 00:16:32;;;;;;;5.20;3.60;;;;;;;21.95;51.06;101428.50;5011710;28;20025;-54
2022/10/18 00:18:58;;;;;;;4.93;3.10;;;;;;;22.12;50.63;101428.31;5011564;28;20042;-54
2022/10/18 00:21:26;;;;;;;8.25;3.95;;;;;;;21.99;51.69;101426.06;5006810;28;20026;-53
2022/10/18 00:23:53;;;;;;;6.30;3.97;;;;;;;22.19;51.22;101428.03;5011430;28;20092;-54
2022/10/18 00:26:23;;;;;;;8.45;3.63;;;;;;;21.75;52.18;101418.34;5012312;28;20105;-54
2022/10/18 00:28:53;;;;;;;6.68;4.45;;;;;;;21.98;51.49;101422.50;5002717;28;20493;-54
2022/10/18 00:31:28;;;;;;;8.73;3.55;;;;;;;21.79;52.45;101419.44;5003438;28;20042;-54
2022/10/18 00:33:57;;;;;;;7.28;3.65;;;;;;;21.72;52.48;101412.63;4995347;28;20046;-54
2022/10/18 00:36:24;;;;;;;9.55;3.95;;;;;;;21.56;52.67;101417.19;4991970;28;20156;-54
2022/10/18 00:38:51;;;;;;;10.32;3.80;;;;;;;21.47;52.60;101416.03;4991600;28;20026;-55
2022/10/18 00:41:24;;;;;;;7.22;4.07;;;;;;;21.46;52.33;101411.69;4995134;28;20462;-55
2022/10/18 00:43:52;;;;;;;9.20;4.75;;;;;;;21.38;52.94;101412.16;5010720;28;20532;-55
2022/10/18 00:46:18;;;;;;;9.65;4.22;;;;;;;21.27;53.18;101409.38;5011359;28;20022;-55
2022/10/18 00:48:45;;;;;;;8.35;3.83;;;;;;;21.52;52.69;101407.88;5010113;28;20025;-55
2022/10/18 00:51:12;;;;;;;6.47;4.05;;;;;;;21.28;53.37;101410.19;4996855;28;20153;-55
2022/10/18 00:53:39;;;;;;;20.50;4.93;;;;;;;21.43;53.45;101404.88;4991257;28;20053;-55
2022/10/18 00:56:06;;;;;;;11.82;4.32;;;;;;;21.21;54.44;101406.88;4991727;28;20383;-55
2022/10/18 00:58:33;;;;;;;7.57;4.30;;;;;;;21.08;55.53;101405.44;4991338;28;20031;-54
2022/10/18 01:00:59;;;;;;;7.07;4.18;;;;;;;20.94;55.93;101409.72;4991827;28;20030;-54
2022/10/18 01:03:26;;;;;;;9.88;4.45;;;;;;;20.66;56.58;101417.09;4991141;28;20375;-54
2022/10/18 01:05:52;;;;;;;8.65;4.80;;;;;;;20.43;57.91;101411.94;4991348;28;20031;-55
2022/10/18 01:08:49;;;;;;;9.45;5.32;;;;;;;20.31;58.78;101414.84;5008906;28;20026;-54
2022/10/18 01:11:36;;;;;;;10.23;4.43;;;;;;;20.32;58.30;101408.31;5011464;28;20056;-56
2022/10/18 01:14:32;;;;;;;15.18;5.35;;;;;;;20.29;58.62;101409.66;5010054;28;20429;-55
2022/10/18 01:17:15;;;;;;;8.40;4.60;;;;;;;20.54;58.12;101409.13;5011051;28;20097;-52
2022/10/18 01:20:19;;;;;;;10.32;4.60;;;;;;;20.28;57.85;101410.75;5006707;28;20458;-54
2022/10/18 01:22:56;;;;;;;7.53;4.85;;;;;;;20.34;57.34;101413.50;4953539;29;20130;-54
2022/10/18 01:25:56;;;;;;;8.15;4.32;;;;;;;20.13;58.05;101407.03;5006331;28;20045;-54
2022/10/18 01:28:59;;;;;;;7.70;4.28;;;;;;;19.74;59.06;101407.97;4995485;28;20122;-54
2022/10/18 01:31:34;;;;;;;12.88;5.03;;;;;;;19.89;59.41;101411.94;5006190;28;20022;-53
2022/10/18 01:34:02;;;;;;;;;;;;;;;20.01;59.11;101409.91;5013336;28;20473;-54
2022/10/18 01:36:35;;;;;;;10.65;5.00;;;;;;;19.85;59.41;101405.38;5014141;28;20012;-53
2022/10/18 01:39:14;;;;;;;8.88;5.25;;;;;;;20.07;58.75;101408.06;5007490;28;20106;-54
2022/10/18 01:41:43;;;;;;;9.30;5.05;;;;;;;19.82;59.75;101405.88;5007235;28;20030;-54
2022/10/18 01:44:15;;;;;;;12.40;4.95;;;;;;;19.70;59.90;101414.16;5013910;28;20100;-54
2022/10/18 01:46:43;;;;;;;11.95;4.75;;;;;;;19.70;59.68;101412.25;5014199;28;20033;-55
2022/10/18 01:49:09;;;;;;;10.98;4.80;;;;;;;19.90;59.41;101414.41;5007500;28;20022;-55
2022/10/18 01:51:35;;;;;;;10.80;5.13;;;;;;;19.89;59.19;101420.91;4994423;28;20026;-54
2022/10/18 01:54:02;;;;;;;13.05;5.13;;;;;;;19.96;59.42;101428.88;4994353;28;20367;-55
2022/10/18 01:56:34;;;;;;;12.18;5.20;;;;;;;19.72;59.97;101426.41;4994667;28;20025;-55
2022/10/18 01:59:12;;;;;;;11.77;5.57;;;;;;;19.83;60.04;101429.28;5009748;28;20038;-54
2022/10/18 02:01:47;;;;;;;14.75;6.00;;;;;;;19.70;60.65;101433.16;5013786;28;20375;-55
2022/10/18 02:04:40;;;;;;;11.55;6.05;;;;;;;19.72;60.70;101431.84;5013540;28;20038;-54
2022/10/18 02:07:27;;;;;;;12.25;5.60;;;;;;;19.57;61.33;101444.38;5012465;28;20034;-56
2022/10/18 02:10:04;;;;;;;10.68;5.28;;;;;;;19.51;61.62;101448.91;5013591;28;20050;-54
2022/10/18 02:12:33;;;;;;;13.93;5.25;;;;;;;19.39;61.86;101446.31;5013417;28;20038;-54
2022/10/18 02:15:01;;;;;;;9.80;5.30;;;;;;;19.25;62.26;101442.28;5003699;28;20075;-55
2022/10/18 02:17:29;;;;;;;10.85;5.38;;;;;;;19.18;62.52;101449.78;4995100;28;20049;-55
2022/10/18 02:19:57;;;;;;;10.68;5.03;;;;;;;19.19;62.43;101444.13;4998618;28;20435;-54
2022/10/18 02:22:31;;;;;;;10.40;5.03;;;;;;;19.33;62.41;101451.94;5006995;28;20053;-53
2022/10/18 02:25:01;;;;;;;15.07;7.28;;;;;;;19.40;62.32;101456.09;5013331;28;20033;-53
2022/10/18 02:27:28;;;;;;;9.15;6.00;;;;;;;19.11;62.80;101454.59;5001468;28;20019;-55
2022/10/18 02:29:54;;;;;;;10.63;5.80;;;;;;;19.30;61.93;101465.97;4994274;28;20105;-54
2022/10/18 02:32:41;;;;;;;14.50;5.72;;;;;;;19.06;61.94;101462.63;5012164;28;20402;-54
2022/10/18 02:35:17;;;;;;;8.55;4.88;;;;;;;18.93;62.04;101463.78;5013030;28;20101;-54
2022/10/18 02:37:47;;;;;;;9.05;5.50;;;;;;;19.00;61.81;101469.88;5011691;28;20114;-54
2022/10/18 02:40:15;;;;;;;10.95;5.93;;;;;;;18.85;61.99;101462.31;5012173;28;20017;-54
2022/10/18 02:42:47;;;;;;;12.68;5.45;;;;;;;18.81;61.71;101477.41;5013013;28;20022;-54
2022/10/18 02:45:15;;;;;;;8.65;5.22;;;;;;;18.75;61.96;101483.00;5013060;28;20034;-55
2022/10/18 02:47:42;;;;;;;10.30;5.15;;;;;;;18.70;61.71;101471.00;5013037;28;20470;-54
2022/10/18 02:50:08;;;;;;;12.18;5.43;;;;;;;18.62;62.17;101475.97;5013075;28;20022;-55
2022/10/18 02:52:35;;;;;;;10.35;4.55;;;;;;;18.55;61.98;101475.31;4995322;28;20068;-55
2022/10/18 02:55:01;;;;;;;7.03;4.28;;;;;;;18.53;61.73;101472.81;5012985;28;20026;-55
2022/10/18 02:57:28;;;;;;;10.85;4.80;;;;;;;18.32;61.96;101474.34;5011428;28;20513;-53
2022/10/18 02:59:55;;;;;;;7.32;4.32;;;;;;;18.36;62.20;101475.50;5010185;28;20536;-55
2022/10/18 03:02:22;;;;;;;11.48;5.60;;;;;;;17.72;62.88;101472.03;5009920;28;20033;-55
2022/10/18 03:04:48;;;;;;;11.63;4.97;;;;;;;17.14;65.22;101470.13;5010699;28;20034;-54
2022/10/18 03:07:14;;;;;;;12.05;4.57;;;;;;;17.37;64.18;101472.03;5011690;28;20124;-54
2022/10/18 03:09:40;;;;;;;11.32;4.93;;;;;;;17.22;64.84;101469.81;5011933;28;20022;-53
2022/10/18 03:12:06;;;;;;;8.82;5.05;;;;;;;17.03;65.41;101471.78;5010815;28;20501;-53
2022/10/18 03:14:33;;;;;;;11.02;5.18;;;;;;;16.67;66.57;101471.94;5011873;28;20030;-54
2022/10/18 03:16:59;;;;;;;9.55;4.63;;;;;;;16.83;65.72;101469.41;5011799;28;20030;-53
2022/10/18 03:19:25;;;;;;;10.23;5.53;;;;;;;16.77;66.16;101477.63;5011649;28;20049;-53
2022/10/18 03:21:51;;;;;;;8.27;4.90;;;;;;;16.74;66.35;101473.50;5010646;28;20030;-52
2022/10/18 03:24:17;;;;;;;11.55;5.13;;;;;;;17.03;65.14;101485.31;5012036;28;20037;-53
2022/10/18 03:26:43;;;;;;;9.70;4.75;;;;;;;16.93;65.61;101484.22;5012683;28;20083;-54
2022/10/18 03:29:10;;;;;;;7.78;4.25;;;;;;;16.91;65.42;101473.66;5012388;28;20025;-53
2022/10/18 03:31:36;;;;;;;10.07;4.68;;;;;;;17.08;64.90;101480.03;5011801;28;20026;-54
2022/10/18 03:34:03;;;;;;;8.50;4.32;;;;;;;17.18;64.64;101484.84;5012176;28;20030;-53
2022/10/18 03:36:29;;;;;;;7.47;4.70;;;;;;;17.24;64.27;101483.09;5012126;28;20466;-53
2022/10/18 03:38:55;;;;;;;5.65;4.35;;;;;;;17.13;64.29;101480.16;5007693;28;20038;-53
2022/10/18 03:41:21;;;;;;;6.60;4.18;;;;;;;17.12;64.39;101478.50;5003587;28;20030;-53
2022/10/18 03:43:47;;;;;;;7.10;4.22;;;;;;;17.19;63.99;101485.69;5011380;28;20359;-54
2022/10/18 03:46:14;;;;;;;6.40;4.65;;;;;;;17.23;63.78;101481.44;5011996;28;20445;-53
2022/10/18 03:48:40;;;;;;;7.13;4.43;;;;;;;17.20;64.04;101481.91;4986418;28;20030;-54
2022/10/18 03:51:06;;;;;;;7.60;3.95;;;;;;;17.30;63.89;101482.16;4992485;28;20022;-54
2022/10/18 03:53:32;;;;;;;6.47;4.78;;;;;;;17.31;63.67;101481.09;5001221;28;20026;-54
2022/10/18 03:55:58;;;;;;;6.88;3.95;;;;;;;17.22;63.66;101480.63;5012156;28;20487;-54
2022/10/18 03:58:25;;;;;;;8.40;4.40;;;;;;;17.18;63.95;101484.84;5001813;28;20042;-54
2022/10/18 04:00:52;;;;;;;7.85;5.05;;;;;;;17.21;63.60;101488.97;4993224;28;20026;-53
2022/10/18 04:03:20;;;;;;;6.47;4.78;;;;;;;17.20;63.77;101479.19;4992254;28;20046;-53
2022/10/18 04:05:47;;;;;;;9.15;4.90;;;;;;;17.20;63.72;101482.72;5002547;28;20438;-53
2022/10/18 04:08:14;;;;;;;10.23;4.82;;;;;;;17.10;63.92;101477.06;5012090;28;20108;-53
2022/10/18 04:10:40;;;;;;;7.25;5.10;;;;;;;17.03;64.42;101476.38;5012117;28;20101;-54
2022/10/18 04:13:07;;;;;;;9.00;5.07;;;;;;;17.00;64.42;101477.66;5011084;28;20042;-53
2022/10/18 04:15:33;;;;;;;12.13;4.82;;;;;;;17.01;64.15;101484.72;5011346;28;20041;-55
2022/10/18 04:18:01;;;;;;;7.80;4.95;;;;;;;17.05;64.22;101477.78;5011519;28;20041;-54
2022/10/18 04:20:27;;;;;;;14.10;5.85;;;;;;;16.92;64.41;101491.50;5011801;28;20390;-54
2022/10/18 04:22:54;;;;;;;11.43;5.93;;;;;;;16.86;64.40;101487.84;5008955;28;20049;-53
2022/10/18 04:25:21;;;;;;;9.00;5.15;;;;;;;16.80;64.62;101493.38;5003654;28;20041;-53
2022/10/18 04:27:47;;;;;;;10.27;5.55;;;;;;;16.81;64.50;101485.03;5001025;28;20494;-54
2022/10/18 04:30:13;;;;;;;9.63;5.25;;;;;;;16.74;64.62;101489.72;5009017;28;20037;-53
2022/10/18 04:32:39;;;;;;;10.85;5.32;;;;;;;16.69;65.02;101488.72;4980427;28;20347;-53
2022/10/18 04:35:08;;;;;;;10.15;5.65;;;;;;;16.67;64.91;101498.97;5002213;28;20076;-55
2022/10/18 04:37:35;;;;;;;10.15;5.07;;;;;;;16.54;65.80;101497.25;5002550;28;20037;-53
2022/10/18 04:40:01;;;;;;;11.15;5.85;;;;;;;16.49;66.22;101497.97;5007083;28;20378;-54
2022/10/18 04:42:28;;;;;;;8.90;5.53;;;;;;;16.54;66.00;101494.53;4996952;28;20030;-54
2022/10/18 04:44:54;;;;;;;12.27;5.57;;;;;;;16.52;66.25;101507.47;4997859;28;20069;-53
2022/10/18 04:47:20;;;;;;;8.15;5.50;;;;;;;16.51;66.00;101508.53;4995944;28;20382;-54
2022/10/18 04:49:46;;;;;;;9.00;5.35;;;;;;;16.48;66.06;101506.28;5011486;28;20073;-52
2022/10/18 04:52:12;;;;;;;10.07;5.43;;;;;;;16.55;65.60;101502.44;5008290;28;20036;-54
2022/10/18 04:54:38;;;;;;;9.68;4.97;;;;;;;16.42;66.27;101512.59;4998573;28;20029;-53
2022/10/18 04:57:05;;;;;;;7.55;4.95;;;;;;;16.41;66.12;101514.47;5002438;28;20092;-51
2022/10/18 04:59:31;;;;;;;10.48;5.32;;;;;;;16.25;66.22;101520.50;5014199;28;20029;-52
2022/10/18 05:01:57;;;;;;;7.40;4.68;;;;;;;16.21;66.27;101522.84;4996415;28;20451;-53
2022/10/18 05:04:23;;;;;;;6.20;4.53;;;;;;;16.20;66.66;101531.16;5012258;28;20034;-54
2022/10/18 05:06:49;;;;;;;7.03;4.95;;;;;;;16.35;66.50;101523.50;5013216;28;20037;-53
2022/10/18 05:09:16;;;;;;;10.80;5.30;;;;;;;16.18;66.73;101535.97;4997945;28;20356;-54
2022/10/18 05:11:42;;;;;;;9.10;5.10;;;;;;;16.01;67.00;101533.06;5012999;28;20018;-52
2022/10/18 05:14:09;;;;;;;6.82;4.60;;;;;;;15.94;67.25;101533.13;5014580;28;20098;-53
2022/10/18 05:16:36;;;;;;;9.27;4.30;;;;;;;15.85;67.51;101529.06;5013974;28;20084;-53
2022/10/18 05:19:04;;;;;;;7.30;5.05;;;;;;;16.00;67.54;101537.63;5014131;28;20120;-52
2022/10/18 05:21:31;;;;;;;8.57;4.78;;;;;;;15.89;67.38;101535.69;5012760;28;20030;-53
2022/10/18 05:23:57;;;;;;;9.95;5.28;;;;;;;15.93;67.27;101530.63;5012782;28;20034;-54
2022/10/18 05:26:23;;;;;;;8.20;4.93;;;;;;;15.80;67.59;101537.00;5011205;28;20045;-52
2022/10/18 05:28:50;;;;;;;12.90;5.43;;;;;;;15.82;68.66;101526.81;5013938;28;20022;-51
2022/10/18 05:31:16;;;;;;;11.30;5.22;;;;;;;15.84;68.03;101524.72;5013897;28;20022;-53
2022/10/18 05:33:43;;;;;;;7.13;4.35;;;;;;;15.71;68.25;101525.69;5013955;28;20053;-53
2022/10/18 05:36:09;;;;;;;7.32;4.50;;;;;;;15.66;68.13;101533.63;5001594;28;20386;-51
2022/10/18 05:38:41;;;;;;;8.48;4.53;;;;;;;15.59;68.36;101527.41;5002383;28;20356;-52
2022/10/18 05:41:08;;;;;;;6.68;4.70;;;;;;;15.61;68.08;101524.53;5007323;28;20041;-54
2022/10/18 05:43:34;;;;;;;9.48;5.25;;;;;;;15.61;67.75;101517.25;5004432;28;20022;-52
2022/10/18 05:46:00;;;;;;;7.60;4.43;;;;;;;15.55;67.78;101521.66;5014249;28;20025;-52
2022/10/18 05:48:26;;;;;;;7.03;4.68;;;;;;;15.49;67.86;101524.41;5013101;28;20108;-53
2022/10/18 05:50:53;;;;;;;6.70;4.30;;;;;;;15.50;67.64;101526.91;5014394;28;20048;-54
2022/10/18 05:53:19;;;;;;;6.05;3.53;;;;;;;15.48;67.51;101522.75;5011421;28;20037;-50
2022/10/18 05:55:45;;;;;;;9.38;4.18;;;;;;;15.39;67.35;101518.72;5012223;28;20501;-51
2022/10/18 05:58:11;;;;;;;7.25;4.57;;;;;;;15.36;67.30;101522.66;5011980;28;20026;-53
2022/10/18 06:00:38;;;;;;;6.18;4.15;;;;;;;15.47;67.44;101524.63;5013314;28;20092;-50
2022/10/18 06:03:04;;;;;;;7.20;4.75;;;;;;;15.43;67.50;101528.81;5011203;28;20482;-50
2022/10/18 06:05:30;;;;;;;5.07;3.83;;;;;;;15.34;67.61;101526.63;5012282;28;20495;-53
2022/10/18 06:07:56;;;;;;;8.27;5.25;;;;;;;15.44;67.60;101526.97;4996759;28;20019;-51
2022/10/18 06:10:22;;;;;;;6.55;4.75;;;;;;;15.36;67.83;101524.53;5012199;28;20060;-53
2022/10/18 06:12:49;;;;;;;7.60;4.95;;;;;;;15.24;68.03;101530.63;5012224;23;20042;-53
2022/10/18 06:15:15;;;;;;;9.20;4.88;;;;;;;15.24;68.45;101543.31;4991155;28;20530;-52
2022/10/18 06:17:41;;;;;;;7.68;4.63;;;;;;;15.27;68.84;101537.47;4993616;28;20030;-53
2022/10/18 06:20:08;;;;;;;7.30;4.63;;;;;;;15.34;68.65;101538.25;4992413;28;20057;-53
2022/10/18 06:22:34;;;;;;;10.43;5.20;;;;;;;15.17;69.01;101543.34;4990541;28;20490;-53
2022/10/18 06:25:00;;;;;;;6.93;4.20;;;;;;;15.21;68.69;101541.03;4992316;28;20062;-54
2022/10/18 06:27:26;;;;;;;8.40;4.50;;;;;;;15.13;68.84;101546.72;4992643;28;20062;-53
2022/10/18 06:29:53;;;;;;;6.82;4.40;;;;;;;15.15;68.98;101544.59;4992042;28;20031;-53
2022/10/18 06:32:19;;;;;;;8.07;4.70;;;;;;;15.08;69.15;101546.53;4983881;28;20032;-53
2022/10/18 06:34:45;;;;;;;7.72;4.75;;;;;;;14.96;69.75;101551.81;4992993;28;20395;-53
2022/10/18 06:37:11;;;;;;;6.78;4.43;;;;;;;15.01;69.37;101554.69;4975615;28;20471;-51
2022/10/18 06:39:37;;;;;;;9.18;4.72;;;;;;;14.70;70.20;101550.91;4993122;28;20065;-53
2022/10/18 06:42:04;;;;;;;11.50;4.78;;;;;;;14.51;70.73;101552.69;4989985;28;20034;-53
2022/10/18 06:44:30;;;;;;;10.13;4.97;;;;;;;14.62;70.15;101561.13;4994253;28;20471;-53
2022/10/18 06:46:56;;;;;;;9.95;6.05;;;;;;;14.17;71.78;101547.63;4993857;28;20045;-53
2022/10/18 06:49:22;;;;;;;9.90;5.22;;;;;;;14.40;70.90;101549.81;4993236;28;20026;-50
2022/10/18 06:51:49;;;;;;;10.50;4.38;;;;;;;14.52;70.54;101548.94;4991481;28;20053;-53
2022/10/18 06:54:15;;;;;;;7.65;4.65;;;;;;;14.55;70.58;101560.31;4991733;28;20483;-53
2022/10/18 06:56:41;;;;;;;7.50;4.88;;;;;;;14.62;70.29;101564.66;4990710;28;20502;-51
2022/10/18 06:59:07;;;;;;;10.90;5.30;;;;;;;14.66;70.20;101565.06;4992657;28;20026;-51
2022/10/18 07:01:34;;;;;;;6.97;5.13;;;;;;;14.70;70.19;101568.94;4989732;28;20483;-52
2022/10/18 07:04:00;;;;;;;7.20;5.90;;;;;;;14.67;70.38;101566.69;4991432;28;20045;-52
2022/10/18 07:06:26;;;;;;;10.23;5.70;;;;;;;14.65;71.04;101566.91;4992629;28;20790;-51
2022/10/18 07:08:53;;;;;;;11.48;5.88;;;;;;;14.38;72.56;101558.09;4991629;28;20046;-51
2022/10/18 07:11:25;;;;;;;7.45;5.18;;;;;;;14.02;74.00;101555.94;4990647;28;20109;-52
2022/10/18 07:13:53;;;;;;;15.05;5.70;;;;;;;13.75;75.34;101571.31;4988718;28;20046;-53
2022/10/18 07:16:19;;;;;;;10.40;4.47;;;;;;;13.65;76.24;101562.81;4992213;28;20049;-51
2022/10/18 07:18:49;;;;;;;9.73;4.88;;;;;;;13.74;75.91;101558.91;4991583;28;20541;-52
2022/10/18 07:21:18;;;;;;;8.45;4.43;;;;;;;14.11;74.50;101565.44;4991311;28;20037;-52
2022/10/18 07:23:45;;;;;;;8.60;4.97;;;;;;;14.27;73.78;101564.16;4991949;28;20034;-53
2022/10/18 07:26:14;;;;;;;12.60;5.07;;;;;;;14.07;74.58;101568.78;4991142;28;20109;-54
2022/10/18 07:28:41;;;;;;;9.98;5.07;;;;;;;13.80;75.57;101574.19;4989893;28;20049;-55
2022/10/18 07:31:08;;;;;;;8.93;4.90;;;;;;;13.59;76.74;101577.13;4991421;28;20042;-55
2022/10/18 07:33:38;;;;;;;9.88;4.95;;;;;;;13.56;77.16;101577.53;4990163;28;20041;-55
2022/10/18 07:36:06;;;;;;;7.72;5.10;;;;;;;13.42;77.75;101571.31;4973526;28;20214;-54
2022/10/18 07:38:34;;;;;;;12.60;5.63;;;;;;;13.34;77.96;101572.38;4982402;28;20062;-51
2022/10/18 07:41:02;;;;;;;9.48;4.97;;;;;;;13.32;78.06;101577.09;4991182;28;20034;-53
2022/10/18 07:43:29;;;;;;;7.53;4.75;;;;;;;13.29;78.58;101572.16;4989586;28;20034;-52
2022/10/18 07:45:58;;;;;;;8.30;5.38;;;;;;;13.44;78.08;101575.47;4991637;28;20517;-50
2022/10/18 07:48:24;;;;;;;10.00;4.55;;;;;;;13.55;77.50;101574.03;4991788;28;20161;-53
2022/10/18 07:50:51;;;;;;;6.70;4.65;;;;;;;13.65;76.98;101576.28;4980798;28;20027;-56
2022/10/18 07:53:17;;;;;;;15.52;5.20;;;;;;;13.50;77.54;101581.88;4979168;28;20030;-56
2022/10/18 07:55:43;;;;;;;6.07;4.57;;;;;;;13.71;76.55;101573.59;4987650;28;20031;-56
2022/10/18 07:58:10;;;;;;;9.10;4.60;;;;;;;13.74;76.08;101570.47;4984800;28;20534;-56
2022/10/18 08:00:37;;;;;;;7.63;4.88;;;;;;;13.82;75.85;101580.19;4990805;28;20050;-50
2022/10/18 08:03:03;;;;;;;10.30;4.53;;;;;;;13.77;76.01;101577.31;4990556;28;20030;-52
2022/10/18 08:05:30;;;;;;;5.00;4.05;;;;;;;14.02;75.47;101587.41;4991301;28;20042;-51
2022/10/18 08:07:56;;;;;;;6.88;4.20;;;;;;;14.16;74.84;101580.97;4989881;28;20375;-54
2022/10/18 08:10:25;;;;;;;8.82;4.60;;;;;;;14.26;74.30;101581.31;4985741;28;20623;-56
2022/10/18 08:12:53;;;;;;;12.68;4.45;;;;;;;14.32;74.17;101585.88;4991661;28;20599;-53
2022/10/18 08:15:22;;;;;;;8.30;4.65;;;;;;;14.41;73.98;101581.91;4990355;28;20046;-51
2022/10/18 08:17:48;;;;;;;8.23;4.97;;;;;;;14.47;73.93;101582.94;4990640;28;20030;-50
2022/10/18 08:20:15;;;;;;;7.50;4.80;;;;;;;14.64;73.10;101594.88;4992630;28;20026;-51
2022/10/18 08:22:41;;;;;;;9.88;4.93;;;;;;;14.63;72.86;101590.53;4991994;28;20601;-52
2022/10/18 08:25:07;;;;;;;8.20;4.75;;;;;;;14.63;72.78;101587.03;4992102;28;20046;-53
2022/10/18 08:27:33;;;;;;;8.52;4.63;;;;;;;14.81;72.24;101587.13;4992249;28;20026;-55
2022/10/18 08:30:01;;;;;;;5.95;4.15;;;;;;;14.82;72.10;101601.44;4991658;28;20031;-54
2022/10/18 08:32:28;;;;;;;7.95;4.55;;;;;;;14.69;72.83;101594.25;4994962;28;20041;-54
2022/10/18 08:34:54;;;;;;;9.70;4.72;;;;;;;14.75;72.43;101598.78;4996055;28;20412;-54
2022/10/18 08:37:20;;;;;;;8.25;5.00;;;;;;;14.81;72.13;101595.22;4996312;28;20034;-54
2022/10/18 08:39:46;;;;;;;10.35;4.35;;;;;;;14.84;71.86;101597.50;4996196;28;20034;-55
2022/10/18 08:43:11;;;;;;;9.43;4.88;;;;;;;14.67;72.68;101599.84;4995811;28;20050;-53
2022/10/18 08:45:40;;;;;;;9.27;4.70;;;;;;;14.81;72.05;101607.88;4930240;29;20039;-55
2022/10/18 08:48:13;;;;;;;8.07;4.38;;;;;;;14.84;71.90;101597.50;4975230;28;20039;-56
2022/10/18 08:50:41;;;;;;;9.45;4.30;;;;;;;14.83;71.89;101592.31;4995946;28;20061;-55
2022/10/18 08:53:27;;;;;;;9.57;4.80;;;;;;;14.87;71.67;101593.53;4993031;28;20026;-56
2022/10/18 08:56:13;;;;;;;5.93;4.25;;;;;;;14.90;71.67;101595.81;4995441;28;20046;-55
2022/10/18 08:58:45;;;;;;;7.32;3.85;;;;;;;14.91;71.42;101595.59;4995078;28;20085;-55
2022/10/18 09:01:39;;;;;;;5.55;4.20;;;;;;;14.98;71.38;101598.22;4993704;28;20026;-54
2022/10/18 09:04:08;;;;;;;9.45;4.40;;;;;;;15.04;70.82;101595.50;4994113;28;20060;-55
2022/10/18 09:06:43;;;;;;;8.38;4.40;;;;;;;14.98;70.85;101598.22;4994987;28;20039;-56
2022/10/18 09:09:30;;;;;;;10.27;5.28;;;;;;;14.93;71.23;101590.78;4992489;28;20042;-56
2022/10/18 09:12:05;;;;;;;6.43;4.35;;;;;;;14.97;71.14;101591.19;4993007;28;20589;-56
2022/10/18 09:15:00;;;;;;;9.40;5.38;;;;;;;14.87;72.32;101596.22;4993441;28;20038;-56
2022/10/18 09:17:26;;;;;;;6.07;4.38;;;;;;;14.91;72.42;101597.44;4994583;28;20042;-56
2022/10/18 09:20:40;;;;;;;10.52;5.57;;;;;;;15.11;72.30;101589.25;4994679;28;20570;-56
2022/10/18 09:23:18;;;;;;;11.50;5.38;;;;;;;15.26;72.13;101581.66;4925614;28;20194;-56
2022/10/18 09:26:10;;;;;;;6.70;4.75;;;;;;;15.23;72.59;101584.81;4987668;28;20042;-55
2022/10/18 09:28:54;;;;;;;8.77;5.50;;;;;;;15.27;72.49;101586.03;4994802;28;20067;-56
2022/10/18 09:31:53;;;;;;;8.15;5.32;;;;;;;15.17;73.05;101583.00;4993714;28;20045;-56
2022/10/18 09:34:36;;;;;;;9.93;5.13;;;;;;;15.27;72.56;101575.25;4953775;28;20054;-56
2022/10/18 09:37:03;;;;;;;8.63;5.18;;;;;;;15.21;72.70;101576.94;4993746;28;20071;-56
2022/10/18 09:39:37;;;;;;;10.57;5.18;;;;;;;15.01;73.44;101576.25;4994533;28;20038;-55
2022/10/18 09:42:38;;;;;;;7.97;5.20;;;;;;;15.16;72.70;101575.94;4993145;28;20045;-55
2022/10/18 09:45:25;;;;;;;9.85;4.93;;;;;;;15.30;72.61;101578.31;4923512;28;20407;-55
2022/10/18 09:48:20;;;;;;;6.38;4.40;;;;;;;15.13;73.04;101579.06;4984714;28;20034;-56
2022/10/18 09:51:10;;;;;;;7.65;4.40;;;;;;;14.84;74.27;101589.41;4994002;28;20550;-56
2022/10/18 09:53:49;;;;;;;6.40;5.00;;;;;;;15.13;73.44;101585.28;4990556;28;20043;-53
2022/10/18 09:56:27;;;;;;;6.60;4.63;;;;;;;14.93;73.69;101585.41;4992578;28;20038;-54
2022/10/18 09:58:53;;;;;;;8.52;4.53;;;;;;;14.88;73.78;101582.56;4992924;28;20344;-53
2022/10/18 10:01:28;;;;;;;8.10;4.95;;;;;;;14.92;73.51;101583.75;4992895;28;20058;-53
2022/10/18 10:03:54;;;;;;;;;;;;;;;15.07;73.58;101582.63;4992154;28;20475;-52
2022/10/18 10:06:28;;;;;;;7.35;5.63;;;;;;;15.16;73.46;101578.66;4992591;28;20024;-53
2022/10/18 10:09:04;;;;;;;8.15;4.55;;;;;;;14.78;74.80;101587.56;4992594;28;20498;-53
2022/10/18 10:11:44;;;;;;;7.22;4.20;;;;;;;14.54;75.75;101578.34;4993028;28;20038;-54
2022/10/18 10:14:22;;;;;;;7.50;4.93;;;;;;;14.57;76.07;101577.09;4993179;28;20046;-54
2022/10/18 10:17:03;;;;;;;7.70;4.72;;;;;;;14.85;75.34;101576.75;4991686;28;20128;-54
2022/10/18 10:19:36;;;;;;;8.80;4.68;;;;;;;14.82;75.71;101578.00;4993633;28;20120;-54
2022/10/18 10:22:08;;;;;;;8.23;4.82;;;;;;;14.74;76.04;101576.41;4993168;28;20022;-52
2022/10/18 10:24:50;;;;;;;8.30;4.50;;;;;;;14.48;76.33;101577.34;4991861;28;20273;-51
2022/10/18 10:27:29;;;;;;;5.75;4.90;;;;;;;14.80;75.41;101574.69;4991392;28;20133;-54
2022/10/18 10:29:59;;;;;;;6.60;4.78;;;;;;;14.77;75.14;101575.16;4974717;28;20113;-52
2022/10/18 10:32:29;;;;;;;6.22;4.85;;;;;;;14.76;75.25;101574.31;4983262;28;20129;-51
2022/10/18 10:34:55;;;;;;;10.43;4.82;;;;;;;14.64;75.41;101569.81;4993306;28;20022;-53
2022/10/18 10:37:29;;;;;;;6.32;5.15;;;;;;;14.63;75.73;101576.25;4991214;28;20360;-54
2022/10/18 10:40:14;;;;;;;8.32;4.53;;;;;;;14.65;75.46;101577.66;4989829;28;20022;-53
2022/10/18 10:43:00;;;;;;;9.80;4.97;;;;;;;14.53;76.04;101580.22;4992938;28;20046;-53
2022/10/18 10:45:35;;;;;;;7.25;5.07;;;;;;;14.71;75.69;101589.47;4992257;28;20438;-49
2022/10/18 10:48:06;;;;;;;;;;;;;;;14.77;75.27;101588.63;4992580;28;20478;-49
2022/10/18 10:50:50;;;;;;;7.25;5.47;;;;;;;14.66;75.84;101586.59;4981469;28;20292;-50
2022/10/18 10:53:51;;;;;;;8.70;5.43;;;;;;;14.36;76.62;101579.03;4990928;28;20030;-52
2022/10/18 10:56:24;;;;;;;6.78;5.18;;;;;;;14.46;76.75;101578.56;4949969;28;20074;-52
2022/10/18 10:58:53;;;;;;;9.48;4.82;;;;;;;14.43;77.14;101587.88;4991879;28;20068;-53
2022/10/18 11:01:21;;;;;;;10.23;5.32;;;;;;;14.34;77.50;101593.75;4991533;28;20395;-53
2022/10/18 11:03:49;;;;;;;10.02;5.15;;;;;;;14.47;76.95;101593.72;4992574;28;20092;-53
2022/10/18 11:06:45;;;;;;;7.93;4.85;;;;;;;14.49;76.93;101595.19;4993467;28;20022;-52
2022/10/18 11:10:01;;;;;;;7.90;5.13;;;;;;;14.42;77.21;101586.25;4991941;28;20454;-53
2022/10/18 11:12:35;;;;;;;9.05;5.40;;;;;;;14.25;78.06;101587.75;4912902;29;20048;-53
2022/10/18 11:15:16;;;;;;;12.40;5.10;;;;;;;14.28;78.03;101592.72;4988753;28;20120;-54
2022/10/18 11:18:00;;;;;;;7.00;5.03;;;;;;;14.26;78.00;101586.72;4992306;28;20053;-53
2022/10/18 11:20:31;;;;;;;8.52;5.07;;;;;;;14.41;77.64;101587.28;4992401;28;20042;-54
2022/10/18 11:23:16;;;;;;;7.57;4.97;;;;;;;14.32;77.86;101577.78;4990879;28;20022;-56
2022/10/18 11:26:11;;;;;;;8.02;5.18;;;;;;;14.36;78.07;101576.31;4974903;28;20034;-56
2022/10/18 11:29:01;;;;;;;6.97;5.13;;;;;;;14.50;77.52;101586.06;4963428;28;20093;-53
2022/10/18 11:31:36;;;;;;;9.02;5.10;;;;;;;14.49;77.40;101586.25;4990164;28;20528;-50
2022/10/18 11:34:02;;;;;;;7.55;5.10;;;;;;;14.33;77.86;101590.22;4993078;28;20482;-50
2022/10/18 11:36:50;;;;;;;9.20;5.22;;;;;;;14.31;78.11;101586.09;4992552;28;20073;-53
2022/10/18 11:39:16;;;;;;;7.78;5.05;;;;;;;14.31;78.17;101586.09;4992639;28;20157;-53
2022/10/18 11:42:03;;;;;;;9.48;5.15;;;;;;;14.31;78.29;101581.53;4988177;28;20030;-52
2022/10/18 11:44:50;;;;;;;7.63;5.00;;;;;;;14.32;78.43;101583.16;4987076;28;20077;-51